Doagh, United Kingdom
Current Conditions -  °F | °C
As of 10:20 PM on Monday 24 Nov 2014 (Local Time) from EGAA Reporting Station
Haze Haze  
Wind Chill:   Ceiling: 400
Heat Index:   Visibility: 1.4mi
Dew Point:   Wind: 5mph
Humidity: 100%   Direction: 170°S
Pressure: 30.27"   Gusts: NA
Location:  54.75°N, 6.08°W
Report Text: EGAA 242220Z 17004KT 2300 BR BKN004 06/06 Q1025
Loading
Personal Weather Stations






























Interactive Weather Map New forecast layout! Learn more

10-Day Weather Forecast

Advertisements
Track Severe Weather on mobile